Airfield :
LOGIN :

Register | Disclaimer

   EN    FR    IT 

 










Legend :    VFR   Marginal VFR   IFR   Intensive IFR   Very Intensive IFR
Visi :
Ceiling :
>= 8 km
>= 3000ft
5 to 8 km
1000 to 3000 ft
1500m to 5 km
500 to 1000 ft
800 to 1500m
200 to 500 ft
< 800m
< 200 ft
Symbols :   Thunderstorms  Fog  Heavy snow  Heavy precipitations  Wind > 20 kt
SIGMETs :     Misc.  Thunderstorms  Icing  Turbulence  Mountain Waves  Volcanic Ashes







- Airport Elevation : 70 ft
- IATA code : LEI


LEAM - Almeria

CURRENT METAR :
  • 210700Z 02011G21KT 340V060 9999 FEW030 23/16 Q1017

EXPIRED METARs :
  • 210630Z 03014KT 9999 FEW030 23/16 Q1016
  • 210600Z 03014G24KT 360V060 9999 FEW030 23/16 Q1016
  • 210530Z 03011KT 360V070 9999 FEW015 23/16 Q1016
  • 210500Z 02010G20KT 330V060 9999 FEW015 23/16 Q1016
  • 210430Z 02007KT 340V080 9999 FEW015 22/16 Q1016

TAF TAF LEAM
Valid from the 21 at 03:00 until the 22 at 03:00 UTC


210200Z 2103/2203 36010KT 9999 FEW025 TX26/2113Z TN21/2104Z
BECMG 2103/2106 06018KT
PROB30
TEMPO 2107/2116 05020G30KT
BECMG 2119/2122 03006KT
No reported NOTAMs for that airfield.
2 SIGMETs reported for the Madrid FIR (LECM) :
 
Frequent thunderstorms
LECM SIGMET 5 VALID 210800/211000 LEVA
LECM MADRID FIR/UIR FRQ TS FCST WI N3625 W00619 - N3732 W00457 - N3711 W00412 - N3558 W00517 - N3625 W00619 TOP FL380 STNR NC=
Frequent thunderstorms
LECM SIGMET 4 VALID 210500/210800 LEVA
LECM MADRID FIR/UIR FRQ TS OBS AT 0258Z WI N3634 W00525 - N3735 W00510 - N3729 W00408 - N3629 W00437 - N3634 W00525 TOP FL380 STNR NC=



MET'MAP, your aeronautical weather chart ! - Copyright ORBIFLY December 2007 - Disclaimer

ORBIFLY MET'MAP TEAM :

Programming & Development : Alexandra Zaïnal
Concept & Development : Baudouin d'Aumeries
Co-Development & Prog : Marc-Olivier Méhu
Technical & hardware support : Manuel Goepfert

Contact : metmap@orbifly.com




SOURCES & CREDITS :

   NOAA